createdAt,value
2022-09-21T00:01:29.099Z,89.30
2022-09-21T00:04:02.368Z,89.50
2022-09-21T00:06:33.525Z,89.40
2022-09-21T00:09:00.469Z,89.60
2022-09-21T00:11:30.861Z,89.50
2022-09-21T00:14:02.808Z,89.60
2022-09-21T00:16:30.185Z,89.70
2022-09-21T00:18:57.149Z,89.60
2022-09-21T00:21:24.427Z,89.60
2022-09-21T00:23:51.205Z,89.60
2022-09-21T00:26:22.018Z,89.70
2022-09-21T00:28:54.903Z,89.90
2022-09-21T00:31:22.934Z,89.90
2022-09-21T00:33:51.116Z,89.70
2022-09-21T00:36:21.666Z,89.70
2022-09-21T00:38:55.182Z,89.70
2022-09-21T00:41:22.746Z,89.80
2022-09-21T00:44:18.515Z,89.60
2022-09-21T00:46:49.187Z,90.00
2022-09-21T00:49:17.558Z,89.60
2022-09-21T00:51:46.392Z,89.50
2022-09-21T00:54:26.148Z,89.60
2022-09-21T00:56:55.548Z,89.80
2022-09-21T00:59:26.789Z,89.60
2022-09-21T01:01:56.471Z,89.60
2022-09-21T01:04:23.326Z,89.60
2022-09-21T01:06:50.693Z,89.40
2022-09-21T01:09:19.013Z,89.30
2022-09-21T01:12:09.964Z,89.50
2022-09-21T01:15:14.603Z,89.50
2022-09-21T01:18:04.962Z,89.70
2022-09-21T01:21:17.025Z,89.30
2022-09-21T01:24:08.893Z,89.50
2022-09-21T01:26:57.733Z,89.20
2022-09-21T01:29:48.603Z,89.40
2022-09-21T01:32:27.993Z,89.70
2022-09-21T01:35:27.025Z,89.70
2022-09-21T01:37:58.429Z,89.90
2022-09-21T01:40:43.880Z,89.60
2022-09-21T01:43:19.017Z,89.90
2022-09-21T01:45:51.997Z,89.70
2022-09-21T01:48:23.711Z,89.70
2022-09-21T01:50:56.216Z,89.70
2022-09-21T01:53:45.923Z,89.80
2022-09-21T01:56:37.623Z,89.90
2022-09-21T01:59:15.926Z,89.80
2022-09-21T02:01:53.659Z,89.90
2022-09-21T02:04:20.698Z,89.90
2022-09-21T02:06:49.580Z,89.70
2022-09-21T02:09:18.082Z,89.80
2022-09-21T02:11:45.296Z,89.90
2022-09-21T02:14:24.071Z,89.80
2022-09-21T02:17:35.568Z,90.00
2022-09-21T02:20:23.681Z,90.10
2022-09-21T02:23:10.166Z,89.90
2022-09-21T02:26:02.394Z,90.00
2022-09-21T02:28:47.226Z,90.00
2022-09-21T02:31:36.170Z,89.90
2022-09-21T02:34:18.970Z,90.00
2022-09-21T02:36:56.978Z,90.20
2022-09-21T02:39:50.240Z,89.90
2022-09-21T02:42:28.125Z,90.00
2022-09-21T02:45:05.060Z,90.00
2022-09-21T02:47:53.606Z,90.00
2022-09-21T02:50:29.740Z,90.00
2022-09-21T02:52:57.916Z,90.00
2022-09-21T02:55:26.409Z,90.00
2022-09-21T02:57:55.520Z,90.00
2022-09-21T03:00:22.331Z,90.10
2022-09-21T03:02:49.252Z,90.40
2022-09-21T03:05:16.019Z,90.10
2022-09-21T03:07:42.721Z,90.10
2022-09-21T03:10:10.058Z,90.10
2022-09-21T03:12:37.175Z,90.10
2022-09-21T03:15:05.020Z,90.10
2022-09-21T03:17:31.882Z,90.10
2022-09-21T03:19:59.413Z,90.10
2022-09-21T03:22:26.119Z,90.10
2022-09-21T03:24:57.393Z,90.10
2022-09-21T03:27:24.284Z,90.20
2022-09-21T03:29:50.972Z,90.20
2022-09-21T03:32:17.673Z,90.30
2022-09-21T03:34:44.393Z,90.30
2022-09-21T03:37:11.545Z,90.40
2022-09-21T03:39:38.285Z,90.40
2022-09-21T03:42:05.189Z,90.40
2022-09-21T03:44:32.128Z,90.40
2022-09-21T03:46:58.885Z,90.40
2022-09-21T03:49:26.238Z,90.40
2022-09-21T03:51:52.989Z,90.40
2022-09-21T03:54:19.841Z,90.40
2022-09-21T03:56:46.632Z,90.30
2022-09-21T03:59:14.398Z,90.30
2022-09-21T04:01:42.258Z,90.30
2022-09-21T04:04:09.223Z,90.30
2022-09-21T04:06:36.656Z,90.30
2022-09-21T04:09:03.611Z,90.40
2022-09-21T04:11:32.426Z,90.40
2022-09-21T04:13:59.248Z,90.40
2022-09-21T04:16:27.110Z,90.40
2022-09-21T04:18:54.077Z,90.30
2022-09-21T04:21:22.282Z,90.30
2022-09-21T04:23:49.974Z,90.30
2022-09-21T04:26:29.119Z,90.30
2022-09-21T04:28:57.164Z,90.40
2022-09-21T04:31:26.276Z,90.30
2022-09-21T04:33:56.105Z,90.40
2022-09-21T04:36:25.233Z,90.40
2022-09-21T04:38:52.332Z,90.40
2022-09-21T04:41:19.156Z,90.40
2022-09-21T04:43:48.188Z,90.30
2022-09-21T04:46:18.481Z,90.40
2022-09-21T04:48:45.676Z,90.30
2022-09-21T04:51:14.096Z,90.30
2022-09-21T04:53:43.055Z,90.30
2022-09-21T04:56:14.391Z,90.30
2022-09-21T04:58:41.340Z,90.40
2022-09-21T05:01:08.113Z,90.30
2022-09-21T05:03:35.514Z,90.40
2022-09-21T05:06:02.544Z,90.40
2022-09-21T05:08:48.159Z,90.40
2022-09-21T05:11:20.886Z,90.50
2022-09-21T05:13:48.322Z,90.60
2022-09-21T05:16:16.641Z,90.50
2022-09-21T05:18:44.426Z,90.60
2022-09-21T05:21:15.357Z,90.60
2022-09-21T05:23:42.279Z,90.70
2022-09-21T05:26:08.987Z,90.60
2022-09-21T05:28:39.843Z,90.60
2022-09-21T05:31:45.935Z,90.60
2022-09-21T05:34:44.696Z,90.80
2022-09-21T05:37:54.874Z,90.80
2022-09-21T05:40:22.216Z,90.70
2022-09-21T05:42:49.459Z,90.60
2022-09-21T05:45:18.558Z,90.70
2022-09-21T05:48:06.707Z,90.80
2022-09-21T05:50:55.936Z,90.90
2022-09-21T05:53:40.769Z,91.00
2022-09-21T05:56:48.721Z,91.00
2022-09-21T05:59:46.674Z,91.00
2022-09-21T06:02:46.896Z,91.20
2022-09-21T06:05:15.480Z,91.10
2022-09-21T06:07:43.193Z,91.10
2022-09-21T06:10:13.228Z,91.00
2022-09-21T06:12:40.864Z,90.90
2022-09-21T06:15:12.336Z,90.80
2022-09-21T06:17:39.318Z,90.80
2022-09-21T06:20:07.681Z,90.70
2022-09-21T06:22:35.145Z,90.60
2022-09-21T06:25:02.099Z,90.50
2022-09-21T06:27:29.303Z,90.50
2022-09-21T06:29:56.228Z,90.40
2022-09-21T06:32:22.936Z,90.20
2022-09-21T06:34:50.029Z,90.20
2022-09-21T06:37:17.067Z,90.10
2022-09-21T06:39:43.975Z,90.00
2022-09-21T06:42:10.713Z,89.70
2022-09-21T06:44:37.640Z,89.50
2022-09-21T06:47:04.643Z,89.40
2022-09-21T06:49:31.900Z,89.20
2022-09-21T06:51:58.619Z,89.20
2022-09-21T06:54:26.065Z,89.00
2022-09-21T06:56:55.808Z,88.80
2022-09-21T06:59:26.068Z,88.80
2022-09-21T07:01:55.724Z,88.80
2022-09-21T07:04:25.367Z,88.90
2022-09-21T07:06:52.472Z,88.90
2022-09-21T07:12:08.021Z,88.70
2022-09-21T07:14:34.807Z,88.70
2022-09-21T07:17:02.311Z,88.60
2022-09-21T07:19:29.092Z,88.40
2022-09-21T07:21:56.100Z,88.10
2022-09-21T07:24:23.034Z,88.10
2022-09-21T07:26:49.751Z,88.10
2022-09-21T07:29:16.564Z,87.80
2022-09-21T07:31:48.451Z,87.60
2022-09-21T07:34:15.610Z,87.40
2022-09-21T07:36:42.801Z,87.40
2022-09-21T07:39:10.567Z,87.20
2022-09-21T07:41:37.540Z,87.20
2022-09-21T07:44:05.278Z,87.30
2022-09-21T07:46:32.347Z,87.30
2022-09-21T07:48:59.048Z,87.10
2022-09-21T07:51:25.823Z,86.90
2022-09-21T07:53:56.789Z,86.90
2022-09-21T07:56:23.922Z,86.70
2022-09-21T07:59:05.975Z,86.90
2022-09-21T08:01:41.901Z,86.80
2022-09-21T08:04:10.909Z,86.30
2022-09-21T08:06:40.033Z,86.60
2022-09-21T08:09:08.527Z,86.30
2022-09-21T08:11:37.388Z,86.20
2022-09-21T08:14:04.789Z,85.70
2022-09-21T08:16:32.221Z,85.30
2022-09-21T08:18:59.740Z,85.00
2022-09-21T08:21:26.603Z,84.80
2022-09-21T08:23:54.048Z,84.80
2022-09-21T08:26:21.300Z,84.50
2022-09-21T08:28:52.000Z,84.30
2022-09-21T08:31:22.110Z,84.20
2022-09-21T08:33:50.254Z,83.90
2022-09-21T08:36:18.514Z,83.80
2022-09-21T08:38:46.647Z,83.20
2022-09-21T08:41:40.643Z,83.10
2022-09-21T08:44:35.832Z,82.40
2022-09-21T08:47:12.658Z,81.20
2022-09-21T08:49:45.546Z,82.20
2022-09-21T08:52:17.263Z,82.20
2022-09-21T08:55:00.009Z,82.10
2022-09-21T08:57:31.278Z,80.90
2022-09-21T09:00:01.336Z,81.00
2022-09-21T09:02:56.102Z,81.20
2022-09-21T09:05:45.509Z,80.30
2022-09-21T09:08:47.132Z,80.00
2022-09-21T09:11:28.968Z,80.40
2022-09-21T09:14:09.911Z,80.10
2022-09-21T09:17:22.921Z,79.20
2022-09-21T09:20:05.061Z,80.20
2022-09-21T09:22:42.810Z,79.60
2022-09-21T09:25:21.741Z,79.20
2022-09-21T09:27:55.666Z,78.30
2022-09-21T09:30:26.610Z,78.00
2022-09-21T09:33:20.730Z,77.40
2022-09-21T09:36:03.468Z,77.30
2022-09-21T09:39:12.929Z,77.70
2022-09-21T09:42:22.890Z,78.40
2022-09-21T09:45:11.815Z,77.10
2022-09-21T09:48:05.980Z,77.10
2022-09-21T09:50:38.558Z,77.40
2022-09-21T09:53:17.286Z,78.00
2022-09-21T09:55:49.485Z,78.30
2022-09-21T09:58:34.352Z,78.50
2022-09-21T10:01:01.255Z,78.30
2022-09-21T10:03:28.788Z,78.70
2022-09-21T10:05:55.633Z,78.50
2022-09-21T10:08:42.572Z,78.50
2022-09-21T10:11:15.027Z,77.30
2022-09-21T10:13:46.536Z,78.30
2022-09-21T10:16:20.497Z,78.90
2022-09-21T10:19:01.594Z,78.00
2022-09-21T10:21:36.990Z,76.90
2022-09-21T10:24:14.924Z,77.20
2022-09-21T10:26:48.342Z,77.50
2022-09-21T10:29:23.893Z,77.60
2022-09-21T10:32:03.051Z,77.30
2022-09-21T10:34:35.178Z,76.80
2022-09-21T10:37:26.454Z,77.10
2022-09-21T10:39:53.219Z,77.10
2022-09-21T10:42:21.121Z,76.90
2022-09-21T10:45:03.934Z,76.30
2022-09-21T10:47:40.633Z,75.50
2022-09-21T10:50:30.298Z,73.90
2022-09-21T10:53:26.125Z,72.00
2022-09-21T10:56:19.074Z,72.30
2022-09-21T10:59:26.787Z,73.40
2022-09-21T11:01:58.328Z,71.80
2022-09-21T11:04:45.460Z,71.40
2022-09-21T11:07:32.316Z,68.90
2022-09-21T11:10:35.714Z,69.20
2022-09-21T11:13:36.779Z,69.50
2022-09-21T11:16:26.494Z,68.00
2022-09-21T11:19:30.553Z,67.10
2022-09-21T11:22:36.156Z,66.10
2022-09-21T11:25:32.550Z,67.40
2022-09-21T11:28:37.827Z,65.50
2022-09-21T11:31:36.937Z,65.70
2022-09-21T11:34:37.704Z,65.20
2022-09-21T11:38:00.250Z,64.80
2022-09-21T11:41:31.129Z,63.30
2022-09-21T11:44:17.189Z,64.80
2022-09-21T11:47:25.658Z,65.10
2022-09-21T11:50:26.391Z,64.80
2022-09-21T11:53:11.189Z,65.90
2022-09-21T11:56:07.910Z,65.80
2022-09-21T11:59:06.989Z,63.30
2022-09-21T12:01:36.834Z,64.00
2022-09-21T12:04:46.958Z,64.50
2022-09-21T12:07:56.145Z,62.80
2022-09-21T12:11:24.649Z,64.10
2022-09-21T12:14:04.772Z,62.80
2022-09-21T12:16:51.910Z,64.30
2022-09-21T12:20:07.788Z,65.10
2022-09-21T12:22:41.022Z,64.40
2022-09-21T12:25:40.890Z,63.50
2022-09-21T12:28:25.968Z,63.00
2022-09-21T12:31:01.590Z,63.80
2022-09-21T12:33:45.283Z,63.90
2022-09-21T12:36:41.869Z,62.60
2022-09-21T12:39:32.682Z,63.10
2022-09-21T12:42:22.096Z,62.60
2022-09-21T12:45:15.842Z,63.20
2022-09-21T12:48:12.175Z,62.80
2022-09-21T12:51:11.333Z,63.00
2022-09-21T12:53:49.899Z,61.90
2022-09-21T12:56:42.113Z,63.20
2022-09-21T12:59:45.188Z,64.10
2022-09-21T13:02:24.448Z,62.70
2022-09-21T13:05:02.867Z,63.70
2022-09-21T13:08:01.205Z,63.60
2022-09-21T13:10:28.167Z,63.70
2022-09-21T13:13:02.101Z,64.10
2022-09-21T13:15:47.061Z,64.20
2022-09-21T13:18:36.235Z,63.60
2022-09-21T13:21:20.305Z,63.60
2022-09-21T13:24:30.686Z,63.00
2022-09-21T13:27:02.496Z,62.30
2022-09-21T13:29:34.249Z,63.10
2022-09-21T13:32:12.477Z,62.90
2022-09-21T13:34:44.178Z,62.50
2022-09-21T13:37:20.080Z,62.50
2022-09-21T13:40:01.880Z,61.80
2022-09-21T13:42:34.853Z,61.70
2022-09-21T13:45:26.150Z,62.40
2022-09-21T13:47:59.594Z,62.90
2022-09-21T13:50:44.862Z,62.50
2022-09-21T13:53:27.410Z,62.60
2022-09-21T13:56:01.121Z,61.80
2022-09-21T13:58:36.092Z,62.50
2022-09-21T14:01:29.491Z,62.20
2022-09-21T14:04:18.020Z,62.40
2022-09-21T14:06:50.023Z,62.40
2022-09-21T14:09:57.282Z,62.40
2022-09-21T14:12:32.635Z,61.90
2022-09-21T14:15:35.722Z,62.80
2022-09-21T14:18:37.334Z,61.40
2022-09-21T14:21:09.507Z,60.10
2022-09-21T14:23:38.803Z,60.80
2022-09-21T14:26:35.679Z,60.90
2022-09-21T14:29:31.098Z,59.70
2022-09-21T14:32:03.144Z,59.30
2022-09-21T14:34:36.993Z,60.80
2022-09-21T14:37:12.540Z,60.90
2022-09-21T14:39:44.365Z,59.10
2022-09-21T14:42:19.466Z,61.30
2022-09-21T14:44:52.558Z,61.10
2022-09-21T14:48:02.720Z,60.50
2022-09-21T14:50:51.667Z,59.70
2022-09-21T14:53:35.482Z,59.40
2022-09-21T14:56:51.667Z,59.70
2022-09-21T14:59:52.827Z,58.70
2022-09-21T15:02:29.378Z,59.20
2022-09-21T15:05:31.324Z,59.80
2022-09-21T15:09:03.694Z,58.10
2022-09-21T15:11:44.829Z,58.80
2022-09-21T15:14:25.834Z,58.40
2022-09-21T15:16:52.682Z,58.70
2022-09-21T15:19:27.190Z,59.00
2022-09-21T15:22:19.740Z,59.30
2022-09-21T15:24:59.396Z,59.30
2022-09-21T15:27:33.650Z,58.40
2022-09-21T15:30:05.820Z,59.00
2022-09-21T15:32:46.524Z,59.10
2022-09-21T15:35:20.217Z,57.90
2022-09-21T15:37:48.330Z,58.70
2022-09-21T15:40:50.050Z,58.50
2022-09-21T15:43:20.999Z,58.40
2022-09-21T15:45:58.126Z,58.80
2022-09-21T15:48:33.930Z,58.90
2022-09-21T15:51:22.551Z,58.30
2022-09-21T15:54:05.135Z,58.30
2022-09-21T15:56:40.563Z,58.20
2022-09-21T15:59:15.944Z,58.60
2022-09-21T16:01:48.443Z,58.40
2022-09-21T16:04:22.413Z,58.40
2022-09-21T16:07:23.894Z,58.20
2022-09-21T16:09:50.748Z,58.10
2022-09-21T16:12:43.858Z,58.40
2022-09-21T16:15:26.175Z,58.30
2022-09-21T16:18:06.684Z,58.40
2022-09-21T16:20:48.158Z,58.10
2022-09-21T16:23:25.490Z,58.30
2022-09-21T16:26:00.718Z,58.30
2022-09-21T16:28:42.068Z,58.20
2022-09-21T16:31:32.117Z,58.40
2022-09-21T16:34:05.349Z,57.90
2022-09-21T16:36:37.899Z,58.60
2022-09-21T16:39:14.958Z,58.50
2022-09-21T16:41:53.736Z,58.80
2022-09-21T16:44:26.182Z,58.80
2022-09-21T16:46:58.197Z,58.70
2022-09-21T16:49:30.560Z,58.90
2022-09-21T16:51:59.755Z,58.80
2022-09-21T16:54:27.917Z,58.90
2022-09-21T16:56:58.505Z,58.80
2022-09-21T16:59:27.023Z,58.80
2022-09-21T17:01:57.679Z,59.00
2022-09-21T17:04:28.464Z,59.00
2022-09-21T17:06:55.815Z,59.00
2022-09-21T17:09:38.496Z,59.10
2022-09-21T17:12:09.239Z,58.70
2022-09-21T17:14:40.904Z,59.10
2022-09-21T17:17:22.944Z,59.20
2022-09-21T17:19:52.647Z,58.80
2022-09-21T17:22:20.134Z,59.30
2022-09-21T17:24:52.358Z,59.40
2022-09-21T17:27:23.071Z,59.40
2022-09-21T17:29:50.598Z,59.50
2022-09-21T17:32:20.883Z,59.50
2022-09-21T17:35:36.886Z,59.50
2022-09-21T17:38:03.675Z,59.80
2022-09-21T17:40:31.054Z,59.70
2022-09-21T17:43:13.697Z,59.80
2022-09-21T17:46:08.378Z,60.00
2022-09-21T17:48:39.137Z,59.70
2022-09-21T17:51:06.558Z,60.20
2022-09-21T17:53:41.658Z,60.20
2022-09-21T17:56:43.466Z,60.40
2022-09-21T17:59:33.973Z,60.30
2022-09-21T18:02:02.299Z,60.50
2022-09-21T18:04:32.814Z,60.80
2022-09-21T18:06:59.996Z,60.90
2022-09-21T18:09:27.217Z,61.10
2022-09-21T18:12:48.547Z,61.90
2022-09-21T18:15:34.108Z,61.40
2022-09-21T18:18:19.903Z,61.60
2022-09-21T18:21:16.989Z,61.80
2022-09-21T18:24:08.534Z,62.00
2022-09-21T18:26:35.616Z,62.20
2022-09-21T18:29:22.530Z,62.40
2022-09-21T18:32:07.054Z,62.50
2022-09-21T18:34:51.113Z,62.70
2022-09-21T18:38:03.425Z,63.00
2022-09-21T18:41:07.784Z,63.10
2022-09-21T18:43:36.529Z,63.30
2022-09-21T18:46:29.162Z,63.40
2022-09-21T18:49:40.924Z,63.70
2022-09-21T18:52:43.169Z,64.00
2022-09-21T18:55:27.042Z,64.10
2022-09-21T18:57:59.369Z,64.40
2022-09-21T19:00:35.852Z,64.50
2022-09-21T19:03:23.313Z,64.60
2022-09-21T19:06:23.290Z,64.70
2022-09-21T19:09:19.114Z,64.60
2022-09-21T19:12:21.763Z,64.80
2022-09-21T19:15:14.261Z,64.90
2022-09-21T19:18:20.139Z,64.90
2022-09-21T19:21:23.938Z,64.50
2022-09-21T19:24:16.510Z,64.50
2022-09-21T19:27:26.225Z,64.60
2022-09-21T19:30:12.647Z,64.50
2022-09-21T19:32:53.114Z,64.60
2022-09-21T19:35:30.034Z,64.60
2022-09-21T19:38:02.959Z,64.80
2022-09-21T19:40:37.266Z,64.80
2022-09-21T19:43:41.551Z,64.80
2022-09-21T19:46:27.080Z,64.70
2022-09-21T19:49:05.133Z,64.80
2022-09-21T19:51:45.618Z,64.90
2022-09-21T19:54:36.600Z,65.00
2022-09-21T19:57:40.302Z,65.10
2022-09-21T20:00:13.248Z,65.00
2022-09-21T20:03:09.553Z,65.10
2022-09-21T20:06:10.164Z,65.00
2022-09-21T20:09:05.220Z,65.10
2022-09-21T20:11:50.646Z,65.50
2022-09-21T20:14:34.800Z,65.70
2022-09-21T20:17:04.665Z,65.70
2022-09-21T20:20:00.914Z,65.70
2022-09-21T20:22:35.999Z,65.70
2022-09-21T20:25:15.564Z,66.00
2022-09-21T20:27:45.999Z,66.20
2022-09-21T20:30:16.458Z,66.30
2022-09-21T20:32:50.543Z,66.50
2022-09-21T20:35:23.829Z,66.70
2022-09-21T20:37:55.688Z,66.90
2022-09-21T20:40:28.929Z,66.90
2022-09-21T20:42:57.335Z,67.10
2022-09-21T20:45:24.822Z,67.20
2022-09-21T20:47:53.919Z,67.50
2022-09-21T20:50:25.383Z,67.70
2022-09-21T20:52:52.147Z,68.50
2022-09-21T20:55:20.301Z,67.80
2022-09-21T20:57:47.101Z,68.00
2022-09-21T21:00:16.536Z,68.10
2022-09-21T21:02:43.762Z,68.20
2022-09-21T21:05:11.210Z,68.10
2022-09-21T21:07:39.797Z,68.20
2022-09-21T21:10:07.949Z,68.20
2022-09-21T21:12:34.682Z,68.30
2022-09-21T21:15:01.395Z,68.30
2022-09-21T21:17:28.377Z,68.40
2022-09-21T21:19:55.082Z,68.60
2022-09-21T21:22:21.775Z,68.60
2022-09-21T21:24:48.542Z,68.60
2022-09-21T21:27:26.057Z,68.70
2022-09-21T21:29:54.961Z,68.80
2022-09-21T21:32:26.802Z,68.90
2022-09-21T21:34:55.177Z,69.10
2022-09-21T21:37:25.413Z,69.10
2022-09-21T21:39:56.239Z,69.30
2022-09-21T21:42:24.966Z,69.50
2022-09-21T21:44:51.906Z,69.30
2022-09-21T21:47:38.684Z,69.50
2022-09-21T21:50:06.257Z,69.50
2022-09-21T21:52:33.110Z,69.50
2022-09-21T21:54:59.891Z,69.60
2022-09-21T21:57:26.660Z,69.60
2022-09-21T21:59:53.417Z,69.50
2022-09-21T22:02:20.295Z,69.60
2022-09-21T22:04:47.151Z,69.50
2022-09-21T22:07:14.008Z,69.60
2022-09-21T22:09:40.737Z,69.50
2022-09-21T22:12:08.289Z,69.50
2022-09-21T22:14:35.580Z,69.60
2022-09-21T22:17:02.414Z,69.70
2022-09-21T22:19:29.387Z,69.70
2022-09-21T22:21:56.177Z,69.70
2022-09-21T22:24:23.835Z,69.70
2022-09-21T22:26:51.025Z,69.80
2022-09-21T22:29:18.015Z,69.80
2022-09-21T22:31:48.811Z,70.00
2022-09-21T22:34:16.483Z,70.10
2022-09-21T22:36:43.943Z,70.20
2022-09-21T22:39:11.690Z,70.20
2022-09-21T22:41:41.522Z,70.30
2022-09-21T22:44:10.261Z,70.50
2022-09-21T22:46:38.396Z,70.60
2022-09-21T22:49:05.916Z,70.60
2022-09-21T22:51:33.702Z,70.70
2022-09-21T22:54:01.562Z,70.80
2022-09-21T22:56:32.049Z,70.80
2022-09-21T22:59:02.214Z,70.80
2022-09-21T23:01:36.201Z,70.90
2022-09-21T23:04:11.807Z,71.00
2022-09-21T23:06:42.550Z,71.30
2022-09-21T23:09:20.196Z,70.80
2022-09-21T23:11:53.422Z,71.00
2022-09-21T23:14:22.846Z,71.00
2022-09-21T23:16:50.539Z,71.20
2022-09-21T23:19:17.711Z,71.20
2022-09-21T23:21:49.884Z,71.20
2022-09-21T23:24:18.215Z,71.50
2022-09-21T23:26:46.139Z,71.50
2022-09-21T23:29:15.800Z,71.50
2022-09-21T23:31:45.571Z,71.80
2022-09-21T23:34:14.156Z,71.60
2022-09-21T23:36:42.060Z,71.80
2022-09-21T23:39:12.620Z,71.80
2022-09-21T23:41:40.355Z,72.00
2022-09-21T23:44:07.643Z,71.90
2022-09-21T23:46:37.835Z,72.00
2022-09-21T23:49:05.672Z,72.20
2022-09-21T23:51:32.704Z,72.20
2022-09-21T23:54:00.279Z,72.30
2022-09-21T23:56:28.510Z,72.40
2022-09-21T23:58:55.654Z,72.50
